createdAt,value
2018-02-09T00:01:10.824Z,1007.65
2018-02-09T00:02:20.297Z,1007.61
2018-02-09T00:03:18.792Z,1007.64
2018-02-09T00:04:24.294Z,1007.64
2018-02-09T00:05:30.791Z,1007.65
2018-02-09T00:06:06.864Z,1007.61
2018-02-09T00:07:49.792Z,1007.60
2018-02-09T00:09:54.296Z,1007.60
2018-02-09T00:10:51.953Z,1007.61
2018-02-09T00:12:07.724Z,1007.64
2018-02-09T00:13:00.293Z,1007.59
2018-02-09T00:13:47.053Z,1007.61
2018-02-09T00:16:14.293Z,1007.62
2018-02-09T00:17:34.294Z,1007.60
2018-02-09T00:18:42.794Z,1007.56
2018-02-09T00:19:44.795Z,1007.57
2018-02-09T00:20:34.796Z,1007.55
2018-02-09T00:21:48.294Z,1007.53
2018-02-09T00:22:39.301Z,1007.55
2018-02-09T00:23:57.794Z,1007.52
2018-02-09T00:24:51.794Z,1007.53
2018-02-09T00:26:04.795Z,1007.53
2018-02-09T00:28:23.915Z,1007.48
2018-02-09T00:29:23.203Z,1007.43
2018-02-09T00:30:12.767Z,1007.44
2018-02-09T00:31:26.905Z,1007.42
2018-02-09T00:32:51.692Z,1007.41
2018-02-09T00:33:35.526Z,1007.42
2018-02-09T00:34:46.296Z,1007.38
2018-02-09T00:35:30.823Z,1007.42
2018-02-09T00:36:48.647Z,1007.41
2018-02-09T00:38:20.092Z,1007.45
2018-02-09T00:39:16.105Z,1007.39
2018-02-09T00:40:27.896Z,1007.34
2018-02-09T00:41:08.132Z,1007.37
2018-02-09T00:42:29.953Z,1007.37
2018-02-09T00:43:42.347Z,1007.34
2018-02-09T00:44:43.891Z,1007.35
2018-02-09T00:45:43.898Z,1007.34
2018-02-09T00:47:55.075Z,1007.35
2018-02-09T00:49:01.841Z,1007.34
2018-02-09T00:50:33.692Z,1007.34
2018-02-09T00:51:12.799Z,1007.37
2018-02-09T00:52:37.085Z,1007.39
2018-02-09T00:53:30.641Z,1007.34
2018-02-09T00:54:49.797Z,1007.37
2018-02-09T00:55:55.948Z,1007.33
2018-02-09T00:57:20.152Z,1007.32
2018-02-09T00:57:56.791Z,1007.32
2018-02-09T00:59:31.400Z,1007.31
2018-02-09T01:00:28.129Z,1007.31
2018-02-09T01:02:05.300Z,1007.31
2018-02-09T01:02:23.851Z,1007.32
2018-02-09T01:04:06.653Z,1007.29
2018-02-09T01:06:11.274Z,1007.31
2018-02-09T01:09:43.449Z,1007.29
2018-02-09T01:11:06.089Z,1007.28
2018-02-09T01:13:30.790Z,1007.31
2018-02-09T01:15:00.484Z,1007.29
2018-02-09T01:16:14.827Z,1007.33
2018-02-09T01:17:53.438Z,1007.30
2018-02-09T01:19:46.081Z,1007.35
2018-02-09T01:22:02.582Z,1007.31
2018-02-09T01:24:02.903Z,1007.31
2018-02-09T01:26:41.626Z,1007.27
2018-02-09T01:28:40.926Z,1007.32
2018-02-09T01:29:39.596Z,1007.25
2018-02-09T01:31:03.872Z,1007.26
2018-02-09T01:32:13.300Z,1007.28
2018-02-09T01:33:02.963Z,1007.21
2018-02-09T01:34:26.114Z,1007.24
2018-02-09T01:36:01.459Z,1007.24
2018-02-09T01:37:01.252Z,1007.28
2018-02-09T01:38:45.503Z,1007.19
2018-02-09T01:39:42.431Z,1007.20
2018-02-09T01:40:26.361Z,1007.20
2018-02-09T01:44:09.388Z,1007.16
2018-02-09T01:45:38.479Z,1007.11
2018-02-09T01:46:56.200Z,1007.06
2018-02-09T01:48:05.115Z,1007.09
2018-02-09T01:49:29.290Z,1007.04
2018-02-09T01:50:06.369Z,1007.07
2018-02-09T01:51:10.872Z,1007.06
2018-02-09T01:53:50.010Z,1007.06
2018-02-09T01:55:34.349Z,1007.06
2018-02-09T01:56:29.851Z,1007.01
2018-02-09T01:58:23.106Z,1007.06
2018-02-09T02:00:25.373Z,1007.02
2018-02-09T02:01:53.079Z,1006.99
2018-02-09T02:03:56.217Z,1006.94
2018-02-09T02:08:02.391Z,1006.90
2018-02-09T02:09:32.297Z,1006.90
2018-02-09T02:12:57.415Z,1006.84
2018-02-09T02:16:07.463Z,1006.85
2018-02-09T02:17:51.093Z,1006.82
2018-02-09T02:27:53.516Z,1006.81
2018-02-09T02:29:03.156Z,1006.80
2018-02-09T02:29:46.875Z,1006.81
2018-02-09T02:32:02.762Z,1006.73
2018-02-09T02:34:40.562Z,1006.76
2018-02-09T02:37:31.984Z,1006.77
2018-02-09T02:38:53.391Z,1006.70
2018-02-09T02:40:50.034Z,1006.69
2018-02-09T02:45:29.784Z,1006.63
2018-02-09T02:48:23.354Z,1006.59
2018-02-09T02:50:03.604Z,1006.59
2018-02-09T02:51:05.249Z,1006.58
2018-02-09T02:52:57.997Z,1006.58
2018-02-09T02:54:00.254Z,1006.53
2018-02-09T02:55:23.401Z,1006.53
2018-02-09T02:56:37.645Z,1006.50
2018-02-09T02:58:48.512Z,1006.47
2018-02-09T02:59:57.434Z,1006.46
2018-02-09T03:02:06.662Z,1006.46
2018-02-09T03:04:30.224Z,1006.44
2018-02-09T03:06:25.016Z,1006.37
2018-02-09T03:07:02.503Z,1006.39
2018-02-09T03:09:37.529Z,1006.31
2018-02-09T03:11:07.948Z,1006.30
2018-02-09T03:12:02.632Z,1006.26
2018-02-09T03:13:24.760Z,1006.25
2018-02-09T03:14:38.383Z,1006.25
2018-02-09T03:15:50.884Z,1006.22
2018-02-09T03:17:22.736Z,1006.22
2018-02-09T03:18:03.704Z,1006.20
2018-02-09T03:19:15.583Z,1006.19
2018-02-09T03:20:29.207Z,1006.17
2018-02-09T03:21:37.919Z,1006.17
2018-02-09T03:22:23.896Z,1006.22
2018-02-09T03:23:09.976Z,1006.19
2018-02-09T03:24:24.320Z,1006.20
2018-02-09T03:25:42.863Z,1006.16
2018-02-09T03:26:34.677Z,1006.15
2018-02-09T03:27:48.609Z,1006.17
2018-02-09T03:29:26.095Z,1006.13
2018-02-09T03:31:23.653Z,1006.12
2018-02-09T03:31:58.877Z,1006.11
2018-02-09T03:33:08.818Z,1006.09
2018-02-09T03:34:22.957Z,1006.08
2018-02-09T03:35:58.805Z,1006.08
2018-02-09T03:37:28.322Z,1006.05
2018-02-09T03:39:18.896Z,1006.02
2018-02-09T03:39:59.753Z,1006.01
2018-02-09T03:41:19.218Z,1005.99
2018-02-09T03:42:30.290Z,1006.00
2018-02-09T03:44:27.441Z,1005.97
2018-02-09T03:45:53.039Z,1005.98
2018-02-09T03:47:26.428Z,1006.00
2018-02-09T03:50:21.540Z,1005.93
2018-02-09T03:51:57.073Z,1005.93
2018-02-09T03:54:35.180Z,1005.89
2018-02-09T03:55:50.038Z,1005.86
2018-02-09T03:56:47.695Z,1005.84
2018-02-09T03:59:01.426Z,1005.84
2018-02-09T03:59:36.966Z,1005.86
2018-02-09T04:00:35.838Z,1005.85
2018-02-09T04:03:23.057Z,1005.84
2018-02-09T04:04:59.322Z,1005.77
2018-02-09T04:06:29.633Z,1005.75
2018-02-09T04:08:30.873Z,1005.73
2018-02-09T04:09:25.250Z,1005.72
2018-02-09T04:11:08.365Z,1005.70
2018-02-09T04:11:50.869Z,1005.73
2018-02-09T04:12:54.043Z,1005.73
2018-02-09T04:14:08.693Z,1005.73
2018-02-09T04:15:23.856Z,1005.71
2018-02-09T04:16:47.211Z,1005.73
2018-02-09T04:18:04.421Z,1005.69
2018-02-09T04:19:53.785Z,1005.71
2018-02-09T04:21:57.485Z,1005.68
2018-02-09T04:23:24.834Z,1005.69
2018-02-09T04:24:38.564Z,1005.71
2018-02-09T04:25:48.603Z,1005.68
2018-02-09T04:26:21.987Z,1005.65
2018-02-09T04:27:54.563Z,1005.67
2018-02-09T04:28:56.306Z,1005.63
2018-02-09T04:30:01.639Z,1005.65
2018-02-09T04:32:18.966Z,1005.65
2018-02-09T04:33:09.030Z,1005.63
2018-02-09T04:34:15.594Z,1005.67
2018-02-09T04:35:25.736Z,1005.67
2018-02-09T04:36:11.406Z,1005.66
2018-02-09T04:40:38.326Z,1005.68
2018-02-09T04:42:30.495Z,1005.67
2018-02-09T04:43:29.483Z,1005.72
2018-02-09T04:45:24.577Z,1005.68
2018-02-09T04:46:48.957Z,1005.70
2018-02-09T04:48:36.169Z,1005.68
2018-02-09T04:50:08.433Z,1005.69
2018-02-09T04:55:24.136Z,1005.66
2018-02-09T04:56:56.706Z,1005.70
2018-02-09T04:58:02.959Z,1005.67
2018-02-09T05:00:26.013Z,1005.67
2018-02-09T05:02:21.622Z,1005.70
2018-02-09T05:03:11.493Z,1005.67
2018-02-09T05:05:10.074Z,1005.65
2018-02-09T05:06:45.409Z,1005.61
2018-02-09T05:07:56.372Z,1005.59
2018-02-09T05:09:18.805Z,1005.60
2018-02-09T05:10:33.660Z,1005.58
2018-02-09T05:12:31.934Z,1005.52
2018-02-09T05:13:55.193Z,1005.50
2018-02-09T05:14:43.318Z,1005.52
2018-02-09T05:16:47.937Z,1005.51
2018-02-09T05:17:54.501Z,1005.51
2018-02-09T05:18:54.914Z,1005.46
2018-02-09T05:19:59.017Z,1005.43
2018-02-09T05:20:57.692Z,1005.48
2018-02-09T05:22:34.462Z,1005.45
2018-02-09T05:25:03.966Z,1005.44
2018-02-09T05:28:34.401Z,1005.43
2018-02-09T05:30:20.693Z,1005.41
2018-02-09T05:32:17.020Z,1005.39
2018-02-09T05:33:32.598Z,1005.36
2018-02-09T05:35:01.377Z,1005.39
2018-02-09T05:36:37.220Z,1005.36
2018-02-09T05:37:54.638Z,1005.32
2018-02-09T05:41:19.754Z,1005.34
2018-02-09T05:42:47.194Z,1005.31
2018-02-09T05:43:28.769Z,1005.29
2018-02-09T05:46:44.151Z,1005.31
2018-02-09T05:48:10.373Z,1005.27
2018-02-09T05:51:50.127Z,1005.29
2018-02-09T05:53:39.898Z,1005.26
2018-02-09T05:55:48.926Z,1005.20
2018-02-09T05:57:41.668Z,1005.18
2018-02-09T05:58:44.235Z,1005.14
2018-02-09T06:04:50.318Z,1005.08
2018-02-09T06:05:11.412Z,1005.11
2018-02-09T06:09:00.587Z,1005.09
2018-02-09T06:10:59.475Z,1005.08
2018-02-09T06:12:28.053Z,1005.04
2018-02-09T06:14:22.838Z,1005.03
2018-02-09T06:15:41.179Z,1005.06
2018-02-09T06:16:57.341Z,1005.05
2018-02-09T06:18:43.352Z,1005.05
2018-02-09T06:22:08.358Z,1005.04
2018-02-09T06:22:35.802Z,1005.05
2018-02-09T06:23:38.778Z,1005.06
2018-02-09T06:24:50.663Z,1005.04
2018-02-09T06:25:51.797Z,1005.06
2018-02-09T06:27:02.247Z,1005.09
2018-02-09T06:28:06.356Z,1005.03
2018-02-09T06:29:25.918Z,1005.05
2018-02-09T06:30:31.455Z,1005.03
2018-02-09T06:31:40.780Z,1005.04
2018-02-09T06:32:45.702Z,1005.06
2018-02-09T06:33:35.570Z,1005.03
2018-02-09T06:34:37.010Z,1005.05
2018-02-09T06:35:51.156Z,1005.03
2018-02-09T06:36:40.301Z,1005.08
2018-02-09T06:39:12.980Z,1005.04
2018-02-09T06:40:22.614Z,1005.06
2018-02-09T06:41:18.832Z,1005.04
2018-02-09T06:42:37.372Z,1005.00
2018-02-09T06:44:03.393Z,1005.04
2018-02-09T06:45:09.644Z,1005.06
2018-02-09T06:46:05.759Z,1005.04
2018-02-09T06:47:17.542Z,1004.99
2018-02-09T06:48:59.533Z,1005.02
2018-02-09T06:50:12.043Z,1005.03
2018-02-09T06:51:09.377Z,1005.04
2018-02-09T06:52:26.078Z,1005.06
2018-02-09T06:53:22.819Z,1005.02
2018-02-09T06:54:23.632Z,1005.04
2018-02-09T06:55:52.108Z,1005.02
2018-02-09T06:56:49.348Z,1004.99
2018-02-09T06:58:05.434Z,1004.99
2018-02-09T06:58:53.972Z,1005.00
2018-02-09T07:00:11.801Z,1004.98
2018-02-09T07:01:26.244Z,1004.97
2018-02-09T07:03:19.803Z,1004.92
2018-02-09T07:04:16.840Z,1004.92
2018-02-09T07:05:30.571Z,1004.91
2018-02-09T07:06:29.041Z,1004.93
2018-02-09T07:07:39.802Z,1004.91
2018-02-09T07:08:54.862Z,1004.87
2018-02-09T07:09:49.644Z,1004.91
2018-02-09T07:11:15.458Z,1004.88
2018-02-09T07:12:34.305Z,1004.87
2018-02-09T07:13:02.158Z,1004.89
2018-02-09T07:14:25.414Z,1004.90
2018-02-09T07:16:45.904Z,1004.86
2018-02-09T07:17:51.850Z,1004.86
2018-02-09T07:19:09.267Z,1004.78
2018-02-09T07:20:48.497Z,1004.80
2018-02-09T07:22:21.985Z,1004.81
2018-02-09T07:26:18.432Z,1004.79
2018-02-09T07:27:54.590Z,1004.77
2018-02-09T07:29:34.015Z,1004.79
2018-02-09T07:30:10.471Z,1004.77
2018-02-09T07:31:42.323Z,1004.74
2018-02-09T07:32:48.181Z,1004.73
2018-02-09T07:34:00.256Z,1004.73
2018-02-09T07:35:15.931Z,1004.75
2018-02-09T07:36:05.390Z,1004.68
2018-02-09T07:37:27.106Z,1004.70
2018-02-09T07:37:54.446Z,1004.70
2018-02-09T07:39:02.852Z,1004.67
2018-02-09T07:40:03.985Z,1004.72
2018-02-09T07:41:20.682Z,1004.68
2018-02-09T07:42:09.428Z,1004.66
2018-02-09T07:43:45.796Z,1004.71
2018-02-09T07:44:29.715Z,1004.71
2018-02-09T07:45:54.707Z,1004.66
2018-02-09T07:46:51.336Z,1004.66
2018-02-09T07:47:36.391Z,1004.67
2018-02-09T07:48:46.026Z,1004.67
2018-02-09T07:49:59.654Z,1004.70
2018-02-09T07:51:00.172Z,1004.64
2018-02-09T07:52:14.307Z,1004.64
2018-02-09T07:53:21.994Z,1004.64
2018-02-09T07:54:29.890Z,1004.63
2018-02-09T07:57:01.543Z,1004.62
2018-02-09T07:57:57.557Z,1004.57
2018-02-09T07:59:03.811Z,1004.56
2018-02-09T08:00:35.970Z,1004.54
2018-02-09T08:01:09.046Z,1004.54
2018-02-09T08:02:10.383Z,1004.53
2018-02-09T08:04:31.493Z,1004.55
2018-02-09T08:05:49.624Z,1004.51
2018-02-09T08:07:21.786Z,1004.53
2018-02-09T08:08:24.455Z,1004.57
2018-02-09T08:09:32.040Z,1004.51
2018-02-09T08:10:25.293Z,1004.53
2018-02-09T08:11:28.265Z,1004.54
2018-02-09T08:12:27.658Z,1004.56
2018-02-09T08:13:31.556Z,1004.55
2018-02-09T08:14:30.231Z,1004.56
2018-02-09T08:15:35.153Z,1004.58
2018-02-09T08:17:03.322Z,1004.56
2018-02-09T08:18:19.854Z,1004.58
2018-02-09T08:19:08.761Z,1004.57
2018-02-09T08:19:59.757Z,1004.55
2018-02-09T08:21:31.620Z,1004.52
2018-02-09T08:22:25.583Z,1004.52
2018-02-09T08:24:54.876Z,1004.53
2018-02-09T08:26:30.013Z,1004.49
2018-02-09T08:27:43.736Z,1004.48
2018-02-09T08:28:49.172Z,1004.46
2018-02-09T08:29:53.889Z,1004.48
2018-02-09T08:31:05.569Z,1004.48
2018-02-09T08:31:49.908Z,1004.46
2018-02-09T08:34:31.804Z,1004.47
2018-02-09T08:35:32.119Z,1004.44
2018-02-09T08:36:36.735Z,1004.41
2018-02-09T08:37:28.347Z,1004.44
2018-02-09T08:38:32.346Z,1004.36
2018-02-09T08:39:26.517Z,1004.38
2018-02-09T08:40:45.671Z,1004.36
2018-02-09T08:41:59.503Z,1004.35
2018-02-09T08:43:15.383Z,1004.35
2018-02-09T08:44:09.248Z,1004.34
2018-02-09T08:45:15.908Z,1004.33
2018-02-09T08:46:28.105Z,1004.35
2018-02-09T08:47:31.285Z,1004.33
2018-02-09T08:48:25.555Z,1004.30
2018-02-09T08:49:33.855Z,1004.32
2018-02-09T08:50:36.539Z,1004.30
2018-02-09T08:51:48.722Z,1004.33
2018-02-09T08:52:58.154Z,1004.31
2018-02-09T08:53:49.959Z,1004.34
2018-02-09T08:58:10.878Z,1004.28
2018-02-09T08:59:27.473Z,1004.26
2018-02-09T09:00:24.919Z,1004.30
2018-02-09T09:01:33.427Z,1004.25
2018-02-09T09:02:35.894Z,1004.22
2018-02-09T09:03:47.777Z,1004.20
2018-02-09T09:04:49.729Z,1004.21
2018-02-09T09:07:04.180Z,1004.13
2018-02-09T09:07:58.556Z,1004.11
2018-02-09T09:09:17.098Z,1004.16
2018-02-09T09:11:24.997Z,1004.10
2018-02-09T09:12:26.130Z,1004.14
2018-02-09T09:13:27.161Z,1004.12
2018-02-09T09:14:30.887Z,1004.06
2018-02-09T09:15:34.451Z,1004.09
2018-02-09T09:16:53.191Z,1004.02
2018-02-09T09:17:52.890Z,1004.04
2018-02-09T09:18:58.940Z,1004.00
2018-02-09T09:20:02.544Z,1003.97
2018-02-09T09:21:05.199Z,1003.98
2018-02-09T09:22:12.069Z,1003.95
2018-02-09T09:23:14.439Z,1003.99
2018-02-09T09:24:33.587Z,1003.92
2018-02-09T09:25:27.654Z,1003.97
2018-02-09T09:26:31.245Z,1003.94
2018-02-09T09:27:34.126Z,1003.94
2018-02-09T09:28:39.861Z,1003.93
2018-02-09T09:29:50.517Z,1003.97
2018-02-09T09:31:01.379Z,1003.95
2018-02-09T09:31:59.336Z,1003.93
2018-02-09T09:33:07.640Z,1003.97
2018-02-09T09:34:11.230Z,1003.98
2018-02-09T09:36:16.876Z,1003.98
2018-02-09T09:37:25.279Z,1003.98
2018-02-09T09:38:34.196Z,1004.01
2018-02-09T09:39:39.836Z,1004.01
2018-02-09T09:40:48.340Z,1004.01
2018-02-09T09:41:50.298Z,1003.96
2018-02-09T09:43:07.099Z,1004.00
2018-02-09T09:44:06.999Z,1004.01
2018-02-09T09:45:13.978Z,1003.98
2018-02-09T09:47:20.536Z,1003.98
2018-02-09T09:48:24.946Z,1003.99
2018-02-09T09:49:24.852Z,1003.99
2018-02-09T09:50:38.681Z,1003.97
2018-02-09T09:51:32.550Z,1003.98
2018-02-09T09:52:44.840Z,1003.98
2018-02-09T09:57:12.415Z,1003.92
2018-02-09T09:58:07.914Z,1003.94
2018-02-09T09:59:20.734Z,1003.90
2018-02-09T10:00:20.831Z,1003.93
2018-02-09T10:01:34.159Z,1003.93
2018-02-09T10:02:39.176Z,1003.87
2018-02-09T10:03:29.456Z,1003.84
2018-02-09T10:04:45.641Z,1003.87
2018-02-09T10:05:50.255Z,1003.92
2018-02-09T10:06:53.743Z,1003.84
2018-02-09T10:08:09.112Z,1003.83
2018-02-09T10:09:15.674Z,1003.85
2018-02-09T10:10:08.511Z,1003.83
2018-02-09T10:11:14.765Z,1003.85
2018-02-09T10:12:15.796Z,1003.84
2018-02-09T10:16:50.229Z,1003.79
2018-02-09T10:17:54.542Z,1003.78
2018-02-09T10:18:47.583Z,1003.76
2018-02-09T10:20:01.412Z,1003.77
2018-02-09T10:21:02.350Z,1003.75
2018-02-09T10:22:13.509Z,1003.76
2018-02-09T10:24:22.244Z,1003.74
2018-02-09T10:25:30.426Z,1003.76
2018-02-09T10:26:30.228Z,1003.78
2018-02-09T10:27:33.001Z,1003.72
2018-02-09T10:28:45.504Z,1003.73
2018-02-09T10:29:54.622Z,1003.73
2018-02-09T10:31:01.390Z,1003.75
2018-02-09T10:32:02.220Z,1003.71
2018-02-09T10:33:05.094Z,1003.74
2018-02-09T10:34:15.335Z,1003.71
2018-02-09T10:35:23.329Z,1003.69
2018-02-09T10:37:30.202Z,1003.67
2018-02-09T10:39:31.754Z,1003.73
2018-02-09T10:40:37.188Z,1003.73
2018-02-09T10:41:46.206Z,1003.66
2018-02-09T10:42:57.070Z,1003.67
2018-02-09T10:45:06.611Z,1003.70
2018-02-09T10:46:24.839Z,1003.68
2018-02-09T10:47:23.820Z,1003.67
2018-02-09T10:48:23.625Z,1003.60
2018-02-09T10:49:32.848Z,1003.55
2018-02-09T10:50:30.192Z,1003.62
2018-02-09T10:51:38.700Z,1003.60
2018-02-09T10:52:54.167Z,1003.58
2018-02-09T10:54:51.529Z,1003.58
2018-02-09T10:56:04.633Z,1003.57
2018-02-09T10:57:17.134Z,1003.54
2018-02-09T10:58:14.480Z,1003.58
2018-02-09T10:59:28.514Z,1003.54
2018-02-09T11:00:30.371Z,1003.51
2018-02-09T11:01:27.199Z,1003.51
2018-02-09T11:03:38.781Z,1003.52
2018-02-09T11:04:47.390Z,1003.51
2018-02-09T11:05:51.088Z,1003.54
2018-02-09T11:07:02.253Z,1003.54
2018-02-09T11:09:12.512Z,1003.52
2018-02-09T11:10:10.259Z,1003.58
2018-02-09T11:11:17.333Z,1003.51
2018-02-09T11:12:29.015Z,1003.50
2018-02-09T11:13:28.099Z,1003.55
2018-02-09T11:14:31.382Z,1003.53
2018-02-09T11:15:43.372Z,1003.53
2018-02-09T11:16:44.913Z,1003.55
2018-02-09T11:17:57.106Z,1003.51
2018-02-09T11:19:02.950Z,1003.49
2018-02-09T11:20:10.637Z,1003.50
2018-02-09T11:22:22.120Z,1003.48
2018-02-09T11:23:28.837Z,1003.48
2018-02-09T11:24:22.341Z,1003.49
2018-02-09T11:25:37.398Z,1003.49
2018-02-09T11:26:32.286Z,1003.50
2018-02-09T11:27:46.425Z,1003.45
2018-02-09T11:28:44.588Z,1003.42
2018-02-09T11:30:56.480Z,1003.42
2018-02-09T11:32:06.318Z,1003.39
2018-02-09T11:33:14.926Z,1003.43
2018-02-09T11:34:19.029Z,1003.43
2018-02-09T11:35:29.482Z,1003.45
2018-02-09T11:36:35.229Z,1003.42
2018-02-09T11:37:44.958Z,1003.40
2018-02-09T11:39:00.530Z,1003.38
2018-02-09T11:39:44.767Z,1003.37
2018-02-09T11:41:01.477Z,1003.35
2018-02-09T11:42:00.560Z,1003.30
2018-02-09T11:43:22.268Z,1003.26
2018-02-09T11:45:27.095Z,1003.25
2018-02-09T11:46:39.195Z,1003.29
2018-02-09T11:47:26.189Z,1003.27
2018-02-09T11:48:57.732Z,1003.28
2018-02-09T11:49:42.175Z,1003.27
2018-02-09T11:51:15.361Z,1003.25
2018-02-09T11:52:14.548Z,1003.25
2018-02-09T11:53:06.258Z,1003.29
2018-02-09T11:54:25.935Z,1003.20
2018-02-09T11:55:33.925Z,1003.22
2018-02-09T11:56:55.126Z,1003.25
2018-02-09T11:58:09.066Z,1003.29
2018-02-09T11:59:08.248Z,1003.29
2018-02-09T12:00:05.800Z,1003.26
2018-02-09T12:02:10.527Z,1003.26
2018-02-09T12:03:11.141Z,1003.23
2018-02-09T12:04:11.661Z,1003.17
2018-02-09T12:05:19.359Z,1003.20
2018-02-09T12:06:28.060Z,1003.17
2018-02-09T12:07:35.132Z,1003.20
2018-02-09T12:08:41.896Z,1003.22
2018-02-09T12:09:38.424Z,1003.16
2018-02-09T12:10:40.580Z,1003.12
2018-02-09T12:11:49.292Z,1003.15
2018-02-09T12:14:05.689Z,1003.15
2018-02-09T12:15:04.673Z,1003.14
2018-02-09T12:16:07.956Z,1003.06
2018-02-09T12:17:18.203Z,1003.14
2018-02-09T12:18:18.392Z,1003.16
2018-02-09T12:19:36.854Z,1003.17
2018-02-09T12:20:38.399Z,1003.12
2018-02-09T12:21:39.633Z,1003.14
2018-02-09T12:22:41.073Z,1003.17
2018-02-09T12:23:49.273Z,1003.20
2018-02-09T12:26:00.756Z,1003.16
2018-02-09T12:27:13.461Z,1003.18
2018-02-09T12:28:07.425Z,1003.20
2018-02-09T12:29:18.900Z,1003.16
2018-02-09T12:30:18.191Z,1003.16
2018-02-09T12:32:36.850Z,1003.16
2018-02-09T12:33:37.679Z,1003.15
2018-02-09T12:34:51.193Z,1003.21
2018-02-09T12:35:45.977Z,1003.15
2018-02-09T12:37:03.699Z,1003.22
2018-02-09T12:37:56.331Z,1003.13
2018-02-09T12:39:18.152Z,1003.16
2018-02-09T12:40:22.460Z,1003.12
2018-02-09T12:41:38.853Z,1003.19
2018-02-09T12:42:21.143Z,1003.06
2018-02-09T12:43:38.661Z,1003.08
2018-02-09T12:44:32.113Z,1003.10
2018-02-09T12:45:44.310Z,1003.14
2018-02-09T12:46:45.029Z,1003.06
2018-02-09T12:47:50.053Z,1003.06
2018-02-09T12:48:59.276Z,1003.07
2018-02-09T12:50:07.886Z,1003.07
2018-02-09T12:50:56.936Z,1003.06
2018-02-09T12:53:22.353Z,1002.99
2018-02-09T12:54:16.617Z,1002.93
2018-02-09T12:55:24.304Z,1002.98
2018-02-09T12:56:30.864Z,1003.00
2018-02-09T12:57:35.992Z,1002.97
2018-02-09T12:58:42.450Z,1002.94
2018-02-09T12:59:41.638Z,1002.94
2018-02-09T13:00:39.698Z,1002.93
2018-02-09T13:01:56.089Z,1002.92
2018-02-09T13:03:00.501Z,1002.92
2018-02-09T13:05:15.578Z,1002.88
2018-02-09T13:06:16.394Z,1002.93
2018-02-09T13:07:19.473Z,1002.88
2018-02-09T13:09:28.191Z,1002.87
2018-02-09T13:10:33.838Z,1002.85
2018-02-09T13:11:39.366Z,1002.88
2018-02-09T13:12:50.228Z,1002.86
2018-02-09T13:13:51.158Z,1002.82
2018-02-09T13:15:00.994Z,1002.87
2018-02-09T13:16:05.302Z,1002.78
2018-02-09T13:17:14.432Z,1002.85
2018-02-09T13:18:23.647Z,1002.83
2018-02-09T13:20:43.627Z,1002.77
2018-02-09T13:21:45.685Z,1002.81
2018-02-09T13:22:59.923Z,1002.76
2018-02-09T13:24:34.644Z,1002.72
2018-02-09T13:25:11.202Z,1002.70
2018-02-09T13:26:10.392Z,1002.68
2018-02-09T13:27:18.078Z,1002.66
2018-02-09T13:29:21.369Z,1002.64
2018-02-09T13:31:37.357Z,1002.61
2018-02-09T13:32:57.125Z,1002.60
2018-02-09T13:33:45.359Z,1002.62
2018-02-09T13:37:14.570Z,1002.60
2018-02-09T13:38:22.967Z,1002.63
2018-02-09T13:39:37.412Z,1002.61
2018-02-09T13:40:44.996Z,1002.52
2018-02-09T13:41:41.726Z,1002.56
2018-02-09T13:42:35.897Z,1002.49
2018-02-09T13:43:47.578Z,1002.51
2018-02-09T13:44:47.191Z,1002.58
2018-02-09T13:45:54.151Z,1002.54
2018-02-09T13:47:12.915Z,1002.58
2018-02-09T13:50:09.430Z,1002.56
2018-02-09T13:51:05.341Z,1002.58
2018-02-09T13:53:32.807Z,1002.50
2018-02-09T13:54:33.931Z,1002.48
2018-02-09T13:55:54.735Z,1002.47
2018-02-09T13:56:55.574Z,1002.47
2018-02-09T13:58:00.924Z,1002.43
2018-02-09T13:59:00.993Z,1002.51
2018-02-09T14:01:27.837Z,1002.53
2018-02-09T14:02:13.719Z,1002.51
2018-02-09T14:03:13.617Z,1002.51
2018-02-09T14:05:29.605Z,1002.53
2018-02-09T14:06:32.480Z,1002.55
2018-02-09T14:07:45.089Z,1002.47
2018-02-09T14:08:53.485Z,1002.41
2018-02-09T14:09:44.700Z,1002.44
2018-02-09T14:11:05.280Z,1002.42
2018-02-09T14:12:01.699Z,1002.36
2018-02-09T14:13:07.245Z,1002.34
2018-02-09T14:14:10.521Z,1002.34
2018-02-09T14:15:17.901Z,1002.35
2018-02-09T14:16:48.628Z,1002.40
2018-02-09T14:17:23.649Z,1002.36
2018-02-09T14:18:43.420Z,1002.35
2018-02-09T14:19:44.448Z,1002.34
2018-02-09T14:20:53.985Z,1002.34
2018-02-09T14:21:55.932Z,1002.27
2018-02-09T14:23:00.548Z,1002.25
2018-02-09T14:25:00.872Z,1002.26
2018-02-09T14:26:20.334Z,1002.23
2018-02-09T14:27:21.365Z,1002.19
2018-02-09T14:28:35.196Z,1002.22
2018-02-09T14:29:28.595Z,1002.25
2018-02-09T14:30:36.241Z,1002.23
2018-02-09T14:31:29.893Z,1002.20
2018-02-09T14:32:36.246Z,1002.23
2018-02-09T14:33:47.114Z,1002.21
2018-02-09T14:34:47.012Z,1002.16
2018-02-09T14:35:59.305Z,1002.20
2018-02-09T14:36:59.825Z,1002.17
2018-02-09T14:38:14.386Z,1002.18
2018-02-09T14:39:24.211Z,1002.19
2018-02-09T14:40:40.810Z,1002.16
2018-02-09T14:43:48.099Z,1002.19
2018-02-09T14:45:08.688Z,1002.16
2018-02-09T14:46:49.143Z,1002.19
2018-02-09T14:48:37.689Z,1002.20
2018-02-09T14:49:36.980Z,1002.17
2018-02-09T14:51:45.902Z,1002.15
2018-02-09T14:52:40.900Z,1002.16
2018-02-09T14:54:54.437Z,1002.14
2018-02-09T14:55:55.760Z,1002.16
2018-02-09T14:57:07.987Z,1002.20
2018-02-09T14:58:10.314Z,1002.12
2018-02-09T14:59:16.568Z,1002.16
2018-02-09T15:00:17.628Z,1002.22
2018-02-09T15:01:30.619Z,1002.19
2018-02-09T15:02:32.461Z,1002.21
2018-02-09T15:03:37.794Z,1002.19
2018-02-09T15:05:43.132Z,1002.21
2018-02-09T15:06:55.019Z,1002.23
2018-02-09T15:07:57.894Z,1002.19
2018-02-09T15:09:07.320Z,1002.22
2018-02-09T15:10:16.243Z,1002.22
2018-02-09T15:11:24.805Z,1002.21
2018-02-09T15:12:14.098Z,1002.27
2018-02-09T15:13:38.480Z,1002.23
2018-02-09T15:14:40.449Z,1002.24
2018-02-09T15:15:39.011Z,1002.23
2018-02-09T15:16:51.812Z,1002.21
2018-02-09T15:20:07.807Z,1002.18
2018-02-09T15:21:15.083Z,1002.18
2018-02-09T15:22:10.482Z,1002.21
2018-02-09T15:23:21.145Z,1002.17
2018-02-09T15:24:28.945Z,1002.15
2018-02-09T15:25:34.874Z,1002.17
2018-02-09T15:26:44.815Z,1002.15
2018-02-09T15:27:47.904Z,1002.16
2018-02-09T15:28:58.140Z,1002.11
2018-02-09T15:29:54.684Z,1002.15
2018-02-09T15:31:00.510Z,1002.13
2018-02-09T15:32:18.746Z,1002.11
2018-02-09T15:33:12.196Z,1002.06
2018-02-09T15:34:25.723Z,1002.03
2018-02-09T15:35:28.594Z,1002.08
2018-02-09T15:36:46.629Z,1002.03
2018-02-09T15:37:37.108Z,1002.01
2018-02-09T15:38:45.922Z,1002.06
2018-02-09T15:39:47.976Z,1002.02
2018-02-09T15:41:43.689Z,1002.03
2018-02-09T15:43:09.196Z,1002.06
2018-02-09T15:44:12.888Z,1002.04
2018-02-09T15:45:08.901Z,1002.07
2018-02-09T15:46:25.190Z,1002.04
2018-02-09T15:47:08.723Z,1002.07
2018-02-09T15:48:58.588Z,1002.04
2018-02-09T15:50:03.109Z,1002.05
2018-02-09T15:51:11.919Z,1002.05
2018-02-09T15:52:06.218Z,1002.03
2018-02-09T15:53:16.543Z,1002.01
2018-02-09T15:54:13.880Z,1002.03
2018-02-09T15:55:06.230Z,1001.96
2018-02-09T15:57:16.359Z,1001.99
2018-02-09T15:58:27.136Z,1001.99
2018-02-09T15:59:02.557Z,1002.00
2018-02-09T16:00:37.907Z,1001.98
2018-02-09T16:01:31.746Z,1001.99
2018-02-09T16:03:08.436Z,1002.03
2018-02-09T16:04:10.775Z,1001.98
2018-02-09T16:04:59.347Z,1001.96
2018-02-09T16:05:59.760Z,1001.95
2018-02-09T16:08:25.241Z,1002.00
2018-02-09T16:09:31.818Z,1001.98
2018-02-09T16:10:22.902Z,1001.97
2018-02-09T16:11:24.094Z,1001.97
2018-02-09T16:14:10.233Z,1002.02
2018-02-09T16:14:44.951Z,1002.04
2018-02-09T16:16:02.871Z,1001.98
2018-02-09T16:17:14.956Z,1002.01
2018-02-09T16:18:09.469Z,1002.01
2018-02-09T16:20:21.433Z,1002.02
2018-02-09T16:21:17.241Z,1002.00
2018-02-09T16:23:39.786Z,1002.01
2018-02-09T16:24:48.804Z,1001.99
2018-02-09T16:25:29.762Z,1002.04
2018-02-09T16:26:50.149Z,1001.98
2018-02-09T16:27:54.762Z,1002.00
2018-02-09T16:29:01.432Z,1002.00
2018-02-09T16:30:02.253Z,1002.04
2018-02-09T16:31:09.940Z,1002.02
2018-02-09T16:32:10.875Z,1002.05